Time;durP1;ratioP1;P1;durP2;ratioP2;P2;SDS_P1;SDS_P2;PMS_P1;PMS_P2;Temp;Humidity;BMP_temperature;BMP_pressure;BME280_temperature;BME280_humidity;BME280_pressure;Samples;Min_cycle;Max_cycle;Signal;HPM_P1;HPM_P2
2022/10/22 00:02:00;;;;;;;11.93;9.80;;;16.80;90.00;;;19.50;63.27;100857.25;5055621;28;20705;-61
2022/10/22 00:04:28;;;;;;;10.43;9.37;;;16.80;90.10;;;19.49;63.09;100860.94;5057437;28;20197;-64
2022/10/22 00:07:01;;;;;;;20.67;13.30;;;16.70;90.00;;;19.45;63.34;100859.78;5057298;28;20185;-62
2022/10/22 00:09:28;;;;;;;29.93;22.43;;;16.70;89.90;;;19.43;63.62;100872.56;5056022;28;20186;-61
2022/10/22 00:11:55;;;;;;;12.00;10.50;;;16.70;90.00;;;19.43;63.19;100871.72;5067204;28;20217;-63
2022/10/22 00:14:22;;;;;;;12.40;10.67;;;16.70;90.00;;;19.41;63.57;100873.81;5076359;28;20196;-61
2022/10/22 00:16:49;;;;;;;17.63;13.73;;;16.70;90.00;;;19.37;63.17;100878.78;5057976;28;20213;-63
2022/10/22 00:19:16;;;;;;;12.93;11.63;;;16.70;89.80;;;19.33;63.11;100884.78;5055373;28;20198;-62
2022/10/22 00:21:45;;;;;;;14.43;12.93;;;16.70;89.70;;;19.29;63.47;100875.63;5055093;28;20236;-61
2022/10/22 00:24:12;;;;;;;10.70;9.70;;;16.60;89.60;;;19.26;63.22;100876.88;5055298;28;20577;-64
2022/10/22 00:26:39;;;;;;;12.77;11.47;;;16.60;89.80;;;19.24;63.71;100872.81;5055546;28;20194;-62
2022/10/22 00:29:06;;;;;;;9.13;8.20;;;16.60;89.90;;;19.23;63.49;100879.22;5066517;28;20201;-63
2022/10/22 00:31:33;;;;;;;10.23;9.23;;;16.50;90.00;;;19.24;63.62;100878.16;5073606;28;20285;-62
2022/10/22 00:34:00;;;;;;;12.03;10.77;;;16.60;90.10;;;19.24;63.68;100872.81;5056921;28;20198;-62
2022/10/22 00:36:28;;;;;;;11.33;10.23;;;16.50;90.00;;;19.23;63.72;100876.53;5070191;28;20212;-62
2022/10/22 00:38:56;;;;;;;11.70;10.40;;;16.50;90.00;;;19.21;63.30;100873.25;5066079;28;20701;-64
2022/10/22 00:41:23;;;;;;;11.97;10.80;;;16.50;89.90;;;19.18;63.43;100873.72;5055123;28;20209;-62
2022/10/22 00:43:57;;;;;;;11.90;10.67;;;16.50;90.00;;;19.12;63.36;100879.97;5066881;28;20221;-62
2022/10/22 00:46:24;;;;;;;11.77;10.57;;;16.50;90.00;;;19.10;63.59;100882.03;5055080;28;20186;-62
2022/10/22 00:48:53;;;;;;;12.53;10.63;;;16.40;89.80;;;19.04;63.63;100880.28;5061461;28;20307;-62
2022/10/22 00:51:24;;;;;;;12.13;10.93;;;16.40;90.00;;;18.98;63.92;100883.84;5075160;28;20604;-62
2022/10/22 00:53:56;;;;;;;10.27;9.27;;;16.40;90.00;;;18.93;63.93;100887.19;5075178;28;20205;-62
2022/10/22 00:56:23;;;;;;;11.37;10.37;;;16.30;90.00;;;18.88;63.91;100887.88;5075783;28;20194;-62
2022/10/22 00:58:56;;;;;;;11.93;10.73;;;16.30;90.00;;;18.83;64.06;100887.72;5075875;28;20633;-61
2022/10/22 01:01:27;;;;;;;10.37;9.37;;;16.30;90.10;;;18.81;64.12;100895.16;5058497;28;20221;-61
2022/10/22 01:03:54;;;;;;;12.80;9.90;;;16.20;90.10;;;18.77;64.31;100887.81;5056175;28;20194;-62
2022/10/22 01:06:28;;;;;;;12.93;9.90;;;16.20;90.10;;;18.72;64.14;100893.00;5066211;28;20193;-62
2022/10/22 01:09:15;;;;;;;11.73;10.50;;;16.20;90.10;;;18.68;64.32;100889.19;5075037;28;20216;-60
2022/10/22 01:11:56;;;;;;;11.87;9.70;;;16.10;90.20;;;18.68;64.30;100891.84;5075110;28;20621;-61
2022/10/22 01:14:38;;;;;;;12.10;10.90;;;16.10;90.30;;;18.69;64.54;100891.59;5074985;28;20178;-64
2022/10/22 01:17:14;;;;;;;10.87;9.73;;;16.10;90.40;;;18.70;64.61;100895.91;5074147;28;20287;-62
2022/10/22 01:20:07;;;;;;;11.93;10.73;;;16.10;90.40;;;18.64;64.39;100912.78;5075366;28;20208;-61
2022/10/22 01:22:42;;;;;;;14.00;10.17;;;16.00;90.30;;;18.59;64.59;100904.63;5073547;28;20220;-60
2022/10/22 01:25:27;;;;;;;10.10;8.77;;;16.00;90.20;;;18.55;64.40;100899.97;5074664;28;20201;-63
2022/10/22 01:28:14;;;;;;;10.90;9.73;;;16.00;90.30;;;18.47;64.64;100909.06;5075464;28;20192;-62
2022/10/22 01:30:45;;;;;;;10.57;9.53;;;16.00;90.40;;;18.44;64.79;100903.38;5075121;28;20213;-62
2022/10/22 01:33:17;;;;;;;11.60;10.47;;;15.90;90.30;;;18.39;65.07;100906.69;5071520;28;20190;-63
2022/10/22 01:35:44;;;;;;;11.43;10.23;;;15.90;90.40;;;18.34;65.05;100898.53;5055369;28;20197;-63
2022/10/22 01:38:19;;;;;;;10.13;9.13;;;15.80;90.40;;;18.31;65.08;100883.00;5067066;28;20232;-62
2022/10/22 01:40:48;;;;;;;10.53;8.93;;;15.80;90.50;;;18.31;65.20;100887.50;5073988;28;20222;-62
2022/10/22 01:43:15;;;;;;;9.53;8.67;;;15.80;90.60;;;18.35;65.26;100888.69;5074658;28;20640;-61
2022/10/22 01:45:50;;;;;;;10.47;9.37;;;15.80;90.80;;;18.40;65.41;100878.19;5074827;28;20663;-62
2022/10/22 01:48:36;;;;;;;9.97;9.07;;;15.70;91.00;;;18.47;65.48;100877.09;5064668;28;20194;-62
2022/10/22 01:51:43;;;;;;;10.77;9.60;;;15.80;91.20;;;18.51;65.09;100882.81;5054310;28;20210;-62
2022/10/22 01:54:27;;;;;;;10.87;9.87;;;15.90;91.00;;;18.52;64.61;100871.91;5048980;28;20222;-62
2022/10/22 01:57:08;;;;;;;9.60;8.70;;;15.90;90.70;;;18.49;64.45;100875.03;5055115;28;20213;-62
2022/10/22 01:59:51;;;;;;;10.13;9.13;;;15.90;90.50;;;18.45;64.49;100884.47;5055379;28;20573;-62
2022/10/22 02:02:35;;;;;;;10.53;9.53;;;15.80;90.30;;;18.37;64.60;100887.44;5054742;28;20209;-62
2022/10/22 02:05:10;;;;;;;11.37;10.37;;;15.80;90.60;;;18.31;64.78;100883.00;5066106;28;20220;-63
2022/10/22 02:07:45;;;;;;;10.27;8.97;;;15.80;90.30;;;18.27;64.87;100895.13;5069086;28;20650;-62
2022/10/22 02:10:16;;;;;;;10.90;9.70;;;15.70;90.40;;;18.22;65.11;100887.81;5068452;28;20209;-63
2022/10/22 02:12:49;;;;;;;9.60;8.70;;;15.70;90.50;;;18.18;65.28;100888.47;5057328;28;20222;-64
2022/10/22 02:15:18;;;;;;;11.23;10.13;;;15.60;90.60;;;18.16;65.39;100885.22;5067451;28;20201;-63
2022/10/22 02:17:49;;;;;;;10.63;9.63;;;15.60;90.60;;;18.16;65.52;100885.22;5069427;28;20283;-62
2022/10/22 02:20:21;;;;;;;9.27;8.37;;;15.60;90.70;;;18.17;65.28;100879.66;5072135;28;20695;-61
2022/10/22 02:22:49;;;;;;;9.63;8.83;;;15.60;90.70;;;18.21;65.45;100882.69;5073812;28;20735;-61
2022/10/22 02:25:17;;;;;;;10.13;9.23;;;15.60;90.80;;;18.22;65.07;100881.66;5073996;28;20204;-60
2022/10/22 02:27:50;;;;;;;11.10;10.00;;;15.60;90.80;;;18.20;65.20;100881.06;5069028;28;20201;-62
2022/10/22 02:30:20;;;;;;;11.13;9.97;;;15.60;90.80;;;18.19;65.10;100884.75;5060026;28;20255;-61
2022/10/22 02:32:58;;;;;;;10.67;9.27;;;15.60;90.70;;;18.17;65.15;100878.84;5065636;28;20204;-60
2022/10/22 02:35:28;;;;;;;10.30;9.40;;;15.60;90.80;;;18.19;65.23;100877.56;5067796;28;20597;-62
2022/10/22 02:37:58;;;;;;;10.93;9.93;;;15.60;91.10;;;18.18;65.17;100883.94;5056253;28;20220;-62
2022/10/22 02:40:27;;;;;;;11.00;10.00;;;15.50;90.70;;;18.18;65.20;100886.59;5053504;28;20213;-60
2022/10/22 02:42:54;;;;;;;10.37;9.27;;;15.60;90.90;;;18.15;65.43;100891.56;5054090;28;20190;-62
2022/10/22 02:45:21;;;;;;;11.33;10.33;;;15.60;90.80;;;18.13;65.65;100897.13;5054346;28;20293;-62
2022/10/22 02:47:50;;;;;;;11.63;10.63;;;15.50;90.90;;;18.10;65.68;100902.06;5066680;28;20185;-62
2022/10/22 02:50:17;;;;;;;10.87;9.77;;;15.50;90.90;;;18.06;65.90;100906.22;5062468;28;20198;-61
2022/10/22 02:52:44;;;;;;;11.10;10.10;;;15.50;90.90;;;18.04;66.11;100909.06;5065436;28;20205;-62
2022/10/22 02:55:11;;;;;;;12.20;11.00;;;15.50;91.00;;;18.01;66.20;100904.19;5061507;28;20210;-61
2022/10/22 02:57:38;;;;;;;11.97;10.87;;;15.50;91.10;;;18.00;66.33;100907.06;5053223;28;20224;-63
2022/10/22 03:00:09;;;;;;;13.77;11.67;;;15.50;91.20;;;17.97;66.70;100912.84;5055665;28;20247;-61
2022/10/22 03:02:36;;;;;;;12.60;11.30;;;15.50;91.30;;;17.97;66.61;100913.66;5053787;28;20283;-61
2022/10/22 03:05:06;;;;;;;12.03;10.73;;;15.50;91.20;;;17.98;66.58;100919.78;5053602;28;20190;-61
2022/10/22 03:07:33;;;;;;;13.40;12.10;;;15.50;91.30;;;17.97;66.63;100913.66;5053525;28;20335;-63
2022/10/22 03:10:00;;;;;;;12.27;11.17;;;15.50;91.30;;;17.99;66.87;100908.13;5053671;28;20209;-63
2022/10/22 03:12:27;;;;;;;12.90;11.47;;;15.50;91.40;;;17.97;66.74;100908.31;5053384;28;20739;-63
2022/10/22 03:14:54;;;;;;;15.07;11.57;;;15.50;91.40;;;17.96;66.84;100911.22;5068648;28;20268;-61
2022/10/22 03:17:21;;;;;;;11.20;10.13;;;15.50;91.40;;;17.95;66.90;100912.22;5061043;28;20213;-60
2022/10/22 03:19:48;;;;;;;13.40;12.00;;;15.50;91.40;;;17.96;67.10;100916.53;5073533;28;20197;-61
2022/10/22 03:22:24;;;;;;;12.30;10.73;;;15.50;91.50;;;17.92;66.87;100918.00;5072984;28;20217;-59
2022/10/22 03:24:57;;;;;;;13.77;11.63;;;15.50;91.40;;;17.94;66.94;100919.44;5073255;28;20181;-61
2022/10/22 03:27:27;;;;;;;12.90;10.47;;;15.50;91.40;;;17.95;66.88;100925.53;5063386;28;20593;-59
2022/10/22 03:29:56;;;;;;;12.50;11.30;;;15.50;91.30;;;17.96;66.76;100927.19;5060458;28;20217;-60
2022/10/22 03:32:23;;;;;;;12.90;11.53;;;15.50;91.30;;;17.93;66.64;100927.63;5060605;28;20239;-62
2022/10/22 03:34:50;;;;;;;11.43;10.33;;;15.50;91.30;;;17.91;66.68;100935.00;5056087;28;20251;-63
2022/10/22 03:37:19;;;;;;;12.20;11.03;;;15.50;91.20;;;17.89;66.85;100931.75;5057062;28;20562;-62
2022/10/22 03:39:46;;;;;;;11.40;10.33;;;15.50;91.20;;;17.87;66.58;100926.66;5057179;28;20263;-61
2022/10/22 03:42:15;;;;;;;11.47;10.37;;;15.40;91.10;;;17.85;66.62;100925.25;5075425;28;20279;-60
2022/10/22 03:44:42;;;;;;;11.37;10.30;;;15.40;91.10;;;17.84;66.71;100923.59;5057822;28;20210;-59
2022/10/22 03:47:09;;;;;;;12.37;11.10;;;15.40;91.20;;;17.82;66.61;100921.16;5056810;28;20247;-59
2022/10/22 03:49:36;;;;;;;11.53;10.40;;;15.40;91.30;;;17.82;66.58;100921.16;5056999;28;20194;-62
2022/10/22 03:52:09;;;;;;;11.33;10.20;;;15.40;91.30;;;17.84;66.56;100928.94;5057021;28;20225;-62
2022/10/22 03:54:38;;;;;;;12.30;11.20;;;15.40;91.30;;;17.87;66.74;100918.66;5057119;28;20206;-62
2022/10/22 03:57:06;;;;;;;11.63;10.47;;;15.40;91.40;;;17.92;66.54;100920.69;5061005;28;20197;-59
2022/10/22 03:59:34;;;;;;;10.90;9.80;;;15.40;91.40;;;17.94;66.50;100918.59;5076275;28;20185;-62
2022/10/22 04:02:01;;;;;;;10.07;9.07;;;15.40;91.40;;;17.99;66.42;100911.59;5076748;28;20270;-63
2022/10/22 04:04:28;;;;;;;13.37;10.80;;;15.40;91.40;;;18.06;66.22;100922.19;5076196;28;20342;-62
2022/10/22 04:06:56;;;;;;;13.43;10.40;;;15.40;91.40;;;18.09;66.10;100921.75;5075729;28;20193;-60
2022/10/22 04:09:23;;;;;;;11.10;10.03;;;15.40;91.80;;;18.12;65.93;100931.97;5075000;28;20560;-62
2022/10/22 04:11:51;;;;;;;12.67;11.37;;;15.40;91.40;;;18.15;66.10;100926.19;5063966;28;20213;-63
2022/10/22 04:14:18;;;;;;;12.63;11.33;;;15.50;91.40;;;18.16;65.77;100938.50;5068676;28;20205;-64
2022/10/22 04:16:45;;;;;;;16.87;11.00;;;15.50;91.30;;;18.11;65.88;100941.78;5075583;28;20246;-62
2022/10/22 04:19:12;;;;;;;12.40;11.20;;;15.50;91.20;;;18.10;65.95;100936.69;5075192;28;20262;-61
2022/10/22 04:21:39;;;;;;;13.00;11.07;;;15.50;91.10;;;18.08;65.77;100939.59;5070824;28;20271;-61
2022/10/22 04:24:07;;;;;;;12.87;10.73;;;15.50;91.00;;;18.09;65.75;100949.19;5054427;28;20197;-62
2022/10/22 04:26:34;;;;;;;12.40;11.13;;;15.50;91.00;;;18.09;65.72;100945.75;5071258;28;20612;-63
2022/10/22 04:29:02;;;;;;;12.90;11.10;;;15.50;90.90;;;18.06;65.58;100944.31;5073843;28;20615;-61
2022/10/22 04:31:29;;;;;;;11.73;10.53;;;15.50;90.80;;;18.03;65.43;100949.25;5074522;28;20255;-62
2022/10/22 04:33:59;;;;;;;12.57;11.37;;;15.50;90.80;;;18.00;65.50;100947.84;5065795;28;20602;-62
2022/10/22 04:36:28;;;;;;;11.40;10.30;;;15.50;90.80;;;17.94;65.74;100947.91;5067317;28;20264;-61
2022/10/22 04:38:58;;;;;;;11.70;10.60;;;15.40;90.80;;;17.93;65.77;100949.75;5078982;28;20295;-62
2022/10/22 04:41:28;;;;;;;11.30;10.20;;;15.40;90.80;;;17.91;65.87;100945.66;5054224;28;20240;-63
2022/10/22 04:43:56;;;;;;;11.57;10.43;;;15.40;90.80;;;17.90;65.82;100949.38;5054256;28;20198;-63
2022/10/22 04:46:28;;;;;;;13.30;11.23;;;15.40;90.90;;;17.91;65.99;100951.00;5054641;28;20186;-62
2022/10/22 04:48:55;;;;;;;14.30;11.13;;;15.40;90.90;;;17.92;65.96;100942.81;5054654;28;20189;-62
2022/10/22 04:51:25;;;;;;;10.67;9.67;;;15.40;91.00;;;17.93;65.93;100932.94;5054406;28;20213;-61
2022/10/22 04:53:52;;;;;;;12.50;10.23;;;15.40;91.10;;;17.98;65.80;100933.09;5064067;28;20201;-63
2022/10/22 04:56:23;;;;;;;12.73;10.93;;;15.40;91.10;;;18.02;65.63;100937.78;5074155;28;20247;-62
2022/10/22 04:58:53;;;;;;;11.57;10.40;;;15.40;91.40;;;18.04;65.55;100934.91;5072638;28;20216;-63
2022/10/22 05:01:23;;;;;;;10.97;9.87;;;15.40;91.10;;;18.02;65.72;100948.44;5073668;28;20212;-62
2022/10/22 05:03:54;;;;;;;11.97;10.77;;;15.40;91.10;;;18.00;65.56;100947.84;5073736;28;20220;-62
2022/10/22 05:06:23;;;;;;;11.60;10.40;;;15.40;91.00;;;18.00;65.75;100949.69;5074397;28;20247;-62
2022/10/22 05:08:55;;;;;;;12.60;11.13;;;15.40;91.00;;;17.97;65.73;100950.16;5056553;28;20243;-62
2022/10/22 05:11:26;;;;;;;12.00;10.87;;;15.40;90.90;;;17.96;65.64;100945.84;5054049;28;20210;-63
2022/10/22 05:13:55;;;;;;;17.37;10.90;;;15.40;90.90;;;17.95;65.68;100939.69;5055449;28;20190;-62
2022/10/22 05:16:22;;;;;;;13.10;10.57;;;15.40;90.90;;;17.95;65.74;100941.53;5053629;28;20268;-62
2022/10/22 05:18:50;;;;;;;12.20;10.90;;;15.40;90.90;;;17.96;65.76;100944.00;5053951;28;20263;-61
2022/10/22 05:21:19;;;;;;;12.00;10.33;;;15.40;91.00;;;17.97;65.59;100934.16;5057330;28;20600;-61
2022/10/22 05:23:49;;;;;;;11.30;10.10;;;15.40;90.90;;;17.97;65.54;100939.50;5074154;28;20259;-63
2022/10/22 05:26:18;;;;;;;11.53;10.47;;;15.40;90.90;;;17.96;65.77;100946.66;5072495;28;20239;-62
2022/10/22 05:28:47;;;;;;;12.90;11.60;;;15.40;90.90;;;17.95;65.80;100946.84;5070444;28;20646;-63
2022/10/22 05:31:16;;;;;;;11.93;10.60;;;15.40;91.00;;;17.94;65.63;100951.41;5053583;28;20233;-63
2022/10/22 05:33:44;;;;;;;12.03;10.50;;;15.40;91.00;;;17.95;65.79;100952.19;5065073;28;20244;-62
2022/10/22 05:36:17;;;;;;;12.10;10.97;;;15.40;91.00;;;17.93;65.72;100964.91;5064854;28;20557;-62
2022/10/22 05:38:45;;;;;;;11.97;10.77;;;15.40;91.00;;;17.93;65.89;100954.25;5073064;28;20212;-63
2022/10/22 05:41:15;;;;;;;10.70;9.67;;;15.40;91.00;;;17.94;65.86;100955.91;5071629;28;20217;-61
2022/10/22 05:43:42;;;;;;;14.07;11.47;;;15.40;91.00;;;17.96;66.08;100956.50;5063132;28;20650;-61
2022/10/22 05:46:12;;;;;;;11.80;10.60;;;15.40;91.10;;;17.96;65.77;100961.81;5053230;28;20255;-62
2022/10/22 05:48:40;;;;;;;13.37;11.20;;;15.40;91.00;;;17.99;65.74;100972.03;5053639;28;20251;-60
2022/10/22 05:51:09;;;;;;;12.30;11.10;;;15.40;91.00;;;17.99;65.73;100969.38;5071365;28;20213;-61
2022/10/22 05:53:41;;;;;;;13.57;11.37;;;15.40;91.00;;;17.96;65.55;100972.47;5071926;28;20205;-60
2022/10/22 05:56:13;;;;;;;12.60;10.67;;;15.40;91.00;;;17.95;65.72;100973.50;5073527;28;20245;-63
2022/10/22 05:58:41;;;;;;;11.40;10.13;;;15.40;90.90;;;17.96;65.58;100967.16;5073467;28;20239;-62
2022/10/22 06:01:13;;;;;;;12.17;10.30;;;15.40;90.90;;;17.97;65.73;100968.78;5065536;28;20759;-62
2022/10/22 06:03:41;;;;;;;13.80;11.23;;;15.40;90.90;;;17.94;65.99;100971.88;5064595;28;20242;-60
2022/10/22 06:06:23;;;;;;;20.70;11.57;;;15.40;90.90;;;17.90;65.82;100976.03;5070289;28;20196;-62
2022/10/22 06:08:53;;;;;;;13.03;11.63;;;15.40;90.90;;;17.90;65.90;100982.13;5068735;28;20185;-62
2022/10/22 06:11:22;;;;;;;12.60;11.30;;;15.40;90.90;;;17.90;65.88;100974.16;5072155;28;20260;-62
2022/10/22 06:13:50;;;;;;;13.13;11.63;;;15.40;90.80;;;17.90;65.99;100986.66;5072991;28;20266;-60
2022/10/22 06:16:18;;;;;;;13.10;10.53;;;15.40;90.80;;;17.87;65.96;100987.09;5056386;28;20193;-61
2022/10/22 06:18:45;;;;;;;13.07;10.93;;;15.40;90.80;;;17.87;66.03;100989.75;5052746;28;20221;-61
2022/10/22 06:21:14;;;;;;;12.57;11.27;;;15.40;90.80;;;17.83;65.74;100991.22;5052546;28;20682;-62
2022/10/22 06:23:42;;;;;;;12.73;10.10;;;15.40;90.80;;;17.80;66.18;100986.31;5052697;28;20666;-62
2022/10/22 06:26:11;;;;;;;11.23;10.13;;;15.40;90.80;;;17.77;65.91;100986.75;5052235;28;20609;-62
2022/10/22 06:28:38;;;;;;;11.40;10.30;;;15.30;90.70;;;17.75;66.10;100994.13;5060661;28;20185;-60
2022/10/22 06:31:05;;;;;;;13.57;9.90;;;15.30;90.80;;;17.72;66.16;100990.06;5072351;28;20251;-62
2022/10/22 06:33:33;;;;;;;12.07;10.73;;;15.30;90.80;;;17.74;66.12;101000.47;5066345;28;20193;-62
2022/10/22 06:36:05;;;;;;;12.40;10.57;;;15.30;90.90;;;17.70;66.13;100999.28;5065510;28;20197;-63
2022/10/22 06:38:34;;;;;;;12.30;10.40;;;15.30;90.90;;;17.71;66.35;100998.28;5072467;28;20303;-61
2022/10/22 06:41:05;;;;;;;11.47;10.20;;;15.30;90.90;;;17.71;66.08;101003.59;5052537;28;20383;-61
2022/10/22 06:43:34;;;;;;;12.27;11.07;;;15.20;90.90;;;17.72;66.20;101005.22;5061974;28;20645;-63
2022/10/22 06:46:04;;;;;;;12.80;11.30;;;15.20;90.90;;;17.72;66.19;101011.34;5072593;28;20217;-62
2022/10/22 06:48:32;;;;;;;12.27;10.63;;;15.30;91.00;;;17.70;66.23;101017.94;5071177;28;20181;-61
2022/10/22 06:51:02;;;;;;;12.70;10.83;;;15.20;90.90;;;17.69;66.13;101017.09;5072225;28;20677;-61
2022/10/22 06:53:29;;;;;;;12.60;10.83;;;15.30;91.00;;;17.69;66.32;101016.28;5072663;28;20699;-60
2022/10/22 06:55:56;;;;;;;11.80;10.50;;;15.30;91.00;;;17.72;66.15;101026.50;5068959;28;20197;-62
2022/10/22 06:58:23;;;;;;;12.73;11.47;;;15.20;90.90;;;17.74;65.98;101024.44;5053035;28;20209;-62
2022/10/22 07:01:01;;;;;;;11.47;10.17;;;15.30;91.00;;;17.77;65.88;101030.19;5052290;28;20214;-64
2022/10/22 07:03:28;;;;;;;11.57;10.37;;;15.30;91.00;;;17.83;65.92;101031.97;5056388;28;20189;-61
2022/10/22 07:05:59;;;;;;;12.27;10.33;;;15.30;90.90;;;17.89;65.81;101038.28;5056723;28;20269;-62
2022/10/22 07:08:30;;;;;;;10.90;9.87;;;15.30;90.90;;;17.94;65.84;101041.13;5054026;28;20221;-62
2022/10/22 07:11:06;;;;;;;12.00;10.67;;;15.40;91.00;;;18.06;65.81;101050.06;5061300;28;20212;-61
2022/10/22 07:13:33;;;;;;;10.93;9.83;;;15.40;91.20;;;18.27;66.05;101053.19;5077945;28;20188;-61
2022/10/22 07:16:02;;;;;;;11.87;10.67;;;15.60;91.30;;;18.44;64.88;101053.47;5073672;28;20255;-61
2022/10/22 07:18:29;;;;;;;9.87;8.97;;;15.70;90.70;;;18.50;64.19;101051.78;5055547;28;20218;-61
2022/10/22 07:20:57;;;;;;;11.23;10.13;;;15.80;90.30;;;18.50;63.99;101057.94;5056446;28;20268;-63
2022/10/22 07:23:24;;;;;;;10.10;8.70;;;15.90;90.00;;;18.53;64.06;101052.19;5056686;28;20201;-60
2022/10/22 07:25:52;;;;;;;11.70;9.50;;;15.90;89.90;;;18.56;63.79;101051.75;5063679;28;20263;-60
2022/10/22 07:28:19;;;;;;;10.93;9.93;;;16.00;89.60;;;18.53;63.62;101062.84;5063886;28;20207;-61
2022/10/22 07:30:46;;;;;;;15.40;9.63;;;16.00;89.50;;;18.51;63.55;101064.91;5067143;28;20205;-61
2022/10/22 07:33:15;;;;;;;10.47;9.37;;;16.00;89.40;;;18.56;63.70;101056.25;5067726;28;20206;-62
2022/10/22 07:35:42;;;;;;;10.90;9.63;;;16.00;89.60;;;18.61;63.52;101067.09;5056514;28;20194;-64
2022/10/22 07:38:13;;;;;;;13.13;10.53;;;16.00;89.60;;;18.61;63.70;101065.22;5075623;28;20235;-62
2022/10/22 07:40:40;;;;;;;11.20;9.47;;;16.00;89.50;;;18.69;63.35;101067.63;5074360;28;20774;-63
2022/10/22 07:43:07;;;;;;;11.30;9.63;;;16.10;89.70;;;18.79;63.43;101072.44;5073644;28;20572;-63
2022/10/22 07:45:34;;;;;;;8.97;8.17;;;16.10;89.60;;;18.90;63.20;101075.22;5055999;28;20200;-61
2022/10/22 07:48:01;;;;;;;11.10;9.53;;;16.20;89.70;;;18.99;63.00;101077.59;5055949;28;20190;-62
2022/10/22 07:50:29;;;;;;;10.00;8.80;;;16.20;89.40;;;19.04;62.80;101075.09;5055836;28;20618;-62
2022/10/22 07:52:56;;;;;;;12.03;9.00;;;16.30;89.20;;;19.09;62.67;101072.56;5059690;28;20229;-62
2022/10/22 07:55:25;;;;;;;9.00;8.10;;;16.40;89.00;;;19.16;62.33;101078.66;5058511;28;20273;-63
2022/10/22 07:57:52;;;;;;;12.90;8.30;;;16.40;88.70;;;19.20;62.14;101079.81;5057298;28;20255;-62
2022/10/22 08:00:19;;;;;;;9.87;8.87;;;16.50;88.60;;;19.27;62.07;101075.22;5075314;28;20267;-63
2022/10/22 08:02:51;;;;;;;11.77;8.07;;;16.50;88.40;;;19.31;62.08;101084.41;5075632;28;20185;-63
2022/10/22 08:05:18;;;;;;;10.73;8.37;;;16.60;88.40;;;19.32;61.55;101086.06;5075324;28;20203;-63
2022/10/22 08:07:51;;;;;;;9.50;8.53;;;16.60;88.70;;;19.31;61.60;101087.09;5070272;28;20201;-62
2022/10/22 08:10:21;;;;;;;8.27;7.43;;;16.60;87.90;;;19.34;61.63;101083.97;5054807;28;20185;-63
2022/10/22 08:12:48;;;;;;;8.63;7.77;;;16.70;87.90;;;19.40;62.09;101083.91;5072462;28;20250;-63
2022/10/22 08:15:15;;;;;;;9.30;8.40;;;16.70;88.00;;;19.49;61.63;101084.44;5075159;28;20189;-62
2022/10/22 08:17:42;;;;;;;10.27;8.33;;;16.70;88.00;;;19.54;61.97;101082.72;5076339;28;20290;-63
2022/10/22 08:20:10;;;;;;;11.37;8.53;;;16.80;88.20;;;19.60;61.93;101083.69;5076528;28;20685;-62
2022/10/22 08:22:37;;;;;;;10.43;8.83;;;16.80;88.20;;;19.67;61.89;101092.44;5064297;28;20237;-62
2022/10/22 08:25:07;;;;;;;9.97;8.97;;;16.90;88.40;;;19.74;61.87;101100.34;5074294;28;20204;-64
2022/10/22 08:27:35;;;;;;;9.37;8.43;;;17.00;88.50;;;19.82;61.53;101106.22;5075892;28;20513;-62
2022/10/22 08:30:04;;;;;;;9.60;8.70;;;17.10;88.60;;;19.90;61.41;101095.19;5075148;28;20197;-63
2022/10/22 08:32:31;;;;;;;10.33;8.80;;;17.10;88.50;;;19.98;61.31;101097.56;5063645;28;20222;-62
2022/10/22 08:34:58;;;;;;;9.03;8.13;;;17.20;88.60;;;20.06;61.28;101094.53;5056875;28;20197;-62
2022/10/22 08:37:25;;;;;;;7.73;7.03;;;17.20;88.40;;;20.19;61.28;101086.34;5074770;28;20243;-62
2022/10/22 08:39:52;;;;;;;9.40;8.27;;;17.30;88.60;;;20.21;60.65;101094.94;5074988;28;20239;-62
2022/10/22 08:42:49;;;;;;;8.10;7.30;;;17.40;88.10;;;20.26;61.25;101096.97;5073756;28;20266;-62
2022/10/22 08:45:23;;;;;;;9.60;7.70;;;17.50;87.90;;;20.58;61.18;101100.16;5074881;28;20185;-63
2022/10/22 08:48:14;;;;;;;7.07;6.37;;;17.70;88.10;;;21.12;59.98;101107.88;5075061;28;20703;-62
2022/10/22 08:50:47;;;;;;;7.40;5.87;;;18.00;88.20;;;21.71;58.77;101105.88;5058886;28;20288;-63
2022/10/22 08:53:24;;;;;;;6.23;5.30;;;18.40;87.20;;;22.14;56.96;101104.31;5055910;28;20280;-62
2022/10/22 08:55:53;;;;;;;5.93;5.30;;;18.80;85.10;;;22.47;55.24;101098.16;5068022;28;20201;-62
2022/10/22 08:58:33;;;;;;;6.80;4.73;;;19.20;82.00;;;22.70;54.62;101100.69;5073792;28;20197;-62
2022/10/22 09:01:08;;;;;;;5.67;4.40;;;19.60;80.70;;;22.99;53.93;101103.28;5073965;28;20657;-62
2022/10/22 09:03:50;;;;;;;7.77;4.70;;;19.90;79.50;;;23.24;52.92;101096.38;5074470;28;20586;-62
2022/10/22 09:06:22;;;;;;;4.20;3.70;;;20.10;78.80;;;23.61;52.90;101101.97;5064583;28;20198;-64
2022/10/22 09:08:51;;;;;;;5.50;4.33;;;20.30;79.10;;;23.79;50.90;101103.50;5054418;28;20240;-63
2022/10/22 09:11:27;;;;;;;5.00;4.60;;;20.50;76.60;;;23.72;51.07;101102.91;5055144;28;20220;-63
2022/10/22 09:13:57;;;;;;;5.87;4.43;;;20.60;76.00;;;23.59;51.22;101104.09;5065803;28;20185;-61
2022/10/22 09:16:37;;;;;;;7.13;4.33;;;20.70;75.60;;;23.50;51.64;101106.41;5070748;28;20236;-61
2022/10/22 09:19:24;;;;;;;6.13;4.20;;;20.70;75.80;;;23.63;51.58;101097.13;5054827;28;20178;-62
2022/10/22 09:22:07;;;;;;;8.17;4.27;;;20.70;76.20;;;23.79;51.32;101106.22;5055155;28;20654;-63
2022/10/22 09:24:38;;;;;;;4.00;3.60;;;20.80;75.80;;;23.88;50.94;101105.50;5053973;28;20193;-63
2022/10/22 09:27:12;;;;;;;5.30;3.77;;;20.80;75.70;;;24.03;50.80;101108.31;5054186;28;20565;-61
2022/10/22 09:29:43;;;;;;;3.97;3.50;;;20.90;75.90;;;24.00;50.63;101111.56;5064968;28;20700;-63
2022/10/22 09:32:10;;;;;;;9.97;4.17;;;21.00;74.90;;;24.21;51.17;101113.41;5054461;28;20217;-63
2022/10/22 09:34:37;;;;;;;5.97;3.80;;;21.10;76.10;;;24.64;50.60;101109.72;5053287;28;20252;-62
2022/10/22 09:37:08;;;;;;;4.87;3.57;;;21.30;75.90;;;25.08;49.96;101106.81;5053279;28;20218;-63
2022/10/22 09:39:38;;;;;;;4.23;3.53;;;21.60;76.30;;;25.53;48.79;101107.84;5054689;28;20214;-63
2022/10/22 09:42:07;;;;;;;4.83;3.50;;;21.90;74.90;;;25.84;47.61;101116.06;5053552;28;20209;-63
2022/10/22 09:44:36;;;;;;;8.67;4.10;;;22.30;72.70;;;25.98;46.29;101109.06;5053935;28;20190;-62
2022/10/22 09:47:24;;;;;;;6.87;3.40;;;22.50;70.60;;;25.92;46.18;101112.81;5053744;28;20277;-63
2022/10/22 09:50:21;;;;;;;5.30;3.03;;;22.60;69.40;;;25.98;46.92;101117.16;5053387;28;20524;-62
2022/10/22 09:52:58;;;;;;;6.53;3.90;;;22.80;70.00;;;26.06;45.91;101119.31;5053420;28;20292;-63
2022/10/22 09:55:26;;;;;;;4.70;3.27;;;22.90;69.30;;;26.11;46.37;101116.66;5052862;28;20235;-64
2022/10/22 09:57:56;;;;;;;6.87;4.93;;;23.00;69.30;;;26.16;46.46;101122.88;5052734;28;20198;-61
2022/10/22 10:00:25;;;;;;;6.70;3.83;;;23.00;69.20;;;26.07;45.97;101127.16;5052552;28;20210;-62
2022/10/22 10:02:58;;;;;;;6.10;3.80;;;23.00;68.10;;;25.91;46.02;101127.41;5055588;28;20225;-62
2022/10/22 10:05:29;;;;;;;6.97;3.53;;;23.00;68.40;;;25.86;46.34;101119.28;5063174;28;20269;-61
2022/10/22 10:07:57;;;;;;;6.23;4.10;;;22.90;68.60;;;25.69;45.45;101124.09;5060324;28;20244;-61
2022/10/22 10:10:35;;;;;;;5.13;3.57;;;22.70;67.10;;;25.41;46.41;101128.78;5053079;28;20194;-61
2022/10/22 10:13:22;;;;;;;4.53;3.20;;;22.70;67.80;;;25.43;47.43;101134.75;5057772;28;20646;-63
2022/10/22 10:15:59;;;;;;;8.90;4.07;;;22.70;68.70;;;25.30;47.21;101142.47;5053013;28;20185;-63
2022/10/22 10:18:46;;;;;;;4.63;3.67;;;22.50;68.30;;;25.13;47.25;101142.66;5059788;28;20721;-63
2022/10/22 10:21:27;;;;;;;9.70;5.70;;;22.50;68.60;;;25.08;47.84;101142.63;5054320;28;20652;-62